createdAt,value
2022-08-05T00:00:16.514Z,23.24
2022-08-05T00:02:50.785Z,23.18
2022-08-05T00:05:27.054Z,23.04
2022-08-05T00:08:06.819Z,23.19
2022-08-05T00:10:52.793Z,23.21
2022-08-05T00:13:19.878Z,23.33
2022-08-05T00:15:55.457Z,23.38
2022-08-05T00:18:24.823Z,23.53
2022-08-05T00:20:51.721Z,23.54
2022-08-05T00:23:44.582Z,23.65
2022-08-05T00:26:07.028Z,23.56
2022-08-05T00:28:33.709Z,23.55
2022-08-05T00:31:04.324Z,23.37
2022-08-05T00:34:54.484Z,23.10
2022-08-05T00:37:08.907Z,22.88
2022-08-05T00:39:04.488Z,22.66
2022-08-05T00:41:46.864Z,22.75
2022-08-05T00:44:18.826Z,22.75
2022-08-05T00:46:47.729Z,22.58
2022-08-05T00:49:20.836Z,22.32
2022-08-05T00:51:51.067Z,21.55
2022-08-05T00:54:18.681Z,21.24
2022-08-05T00:56:51.542Z,21.21
2022-08-05T00:59:18.468Z,20.91
2022-08-05T01:01:48.539Z,21.05
2022-08-05T01:04:15.798Z,20.87
2022-08-05T01:06:47.892Z,20.28
2022-08-05T01:09:19.879Z,20.42
2022-08-05T01:11:49.589Z,20.55
2022-08-05T01:14:33.748Z,20.60
2022-08-05T01:17:05.536Z,20.54
2022-08-05T01:20:01.823Z,20.35
2022-08-05T01:22:51.354Z,20.25
2022-08-05T01:25:40.577Z,20.06
2022-08-05T01:28:18.752Z,20.17
2022-08-05T01:30:55.323Z,20.41
2022-08-05T01:33:26.308Z,20.34
2022-08-05T01:35:57.668Z,20.40
2022-08-05T01:38:29.061Z,20.50
2022-08-05T01:41:01.502Z,20.64
2022-08-05T01:43:30.012Z,20.56
2022-08-05T01:45:58.403Z,20.58
2022-08-05T01:48:36.588Z,20.12
2022-08-05T01:51:12.143Z,20.12
2022-08-05T01:53:57.230Z,20.22
2022-08-05T01:58:11.650Z,20.22
2022-08-05T01:59:20.186Z,20.38
2022-08-05T02:01:48.138Z,20.58
2022-08-05T02:04:18.470Z,20.66
2022-08-05T02:06:45.197Z,20.77
2022-08-05T02:09:11.968Z,20.79
2022-08-05T02:11:52.470Z,20.60
2022-08-05T02:14:32.045Z,20.28
2022-08-05T02:17:06.613Z,20.37
2022-08-05T02:19:46.952Z,20.46
2022-08-05T02:22:17.422Z,20.57
2022-08-05T02:25:00.100Z,20.64
2022-08-05T02:27:30.094Z,20.39
2022-08-05T02:30:16.535Z,20.52
2022-08-05T02:32:48.080Z,20.58
2022-08-05T02:35:27.597Z,20.56
2022-08-05T02:37:56.674Z,20.58
2022-08-05T02:40:27.556Z,20.46
2022-08-05T02:42:56.332Z,20.38
2022-08-05T02:45:25.462Z,20.51
2022-08-05T02:48:07.428Z,20.49
2022-08-05T02:50:43.834Z,20.26
2022-08-05T02:53:12.070Z,20.27
2022-08-05T02:55:54.358Z,19.69
2022-08-05T02:58:28.751Z,19.72
2022-08-05T03:00:56.713Z,19.78
2022-08-05T03:03:23.886Z,19.89
2022-08-05T03:06:54.335Z,20.00
2022-08-05T03:08:42.381Z,20.10
2022-08-05T03:11:57.200Z,20.26
2022-08-05T03:14:08.111Z,20.38
2022-08-05T03:16:35.820Z,20.37
2022-08-05T03:19:04.285Z,20.57
2022-08-05T03:21:49.446Z,20.52
2022-08-05T03:24:29.269Z,20.52
2022-08-05T03:26:57.143Z,20.51
2022-08-05T03:29:24.197Z,20.49
2022-08-05T03:32:11.362Z,20.59
2022-08-05T03:34:38.613Z,20.61
2022-08-05T03:37:06.523Z,20.62
2022-08-05T03:39:38.152Z,20.37
2022-08-05T03:42:19.483Z,20.20
2022-08-05T03:44:45.963Z,20.17
2022-08-05T03:47:14.093Z,20.26
2022-08-05T03:49:51.585Z,20.01
2022-08-05T03:52:48.928Z,19.58
2022-08-05T03:56:06.146Z,19.53
2022-08-05T03:58:10.703Z,19.74
2022-08-05T04:00:42.026Z,19.73
2022-08-05T04:03:26.691Z,19.47
2022-08-05T04:05:56.782Z,19.66
2022-08-05T04:08:34.800Z,19.75
2022-08-05T04:11:07.279Z,20.05
2022-08-05T04:13:50.369Z,20.26
2022-08-05T04:16:25.196Z,20.35
2022-08-05T04:19:00.127Z,20.12
2022-08-05T04:22:08.506Z,20.12
2022-08-05T04:24:19.653Z,19.93
2022-08-05T04:26:49.486Z,19.94
2022-08-05T04:29:16.496Z,19.96
2022-08-05T04:31:43.085Z,20.05
2022-08-05T04:34:18.312Z,20.11
2022-08-05T04:36:56.257Z,20.13
2022-08-05T04:39:23.006Z,20.13
2022-08-05T04:41:51.230Z,20.13
2022-08-05T04:44:21.309Z,20.27
2022-08-05T04:46:56.783Z,20.41
2022-08-05T04:50:00.931Z,20.37
2022-08-05T04:52:11.850Z,20.30
2022-08-05T04:54:38.304Z,20.39
2022-08-05T04:57:04.797Z,20.43
2022-08-05T04:59:38.319Z,20.47
2022-08-05T05:02:36.947Z,20.64
2022-08-05T05:04:52.982Z,20.69
2022-08-05T05:07:29.747Z,20.77
2022-08-05T05:10:02.052Z,20.85
2022-08-05T05:12:29.388Z,20.93
2022-08-05T05:14:55.903Z,21.06
2022-08-05T05:17:24.670Z,21.05
2022-08-05T05:20:09.932Z,20.98
2022-08-05T05:22:40.845Z,21.36
2022-08-05T05:25:16.659Z,21.58
2022-08-05T05:27:53.728Z,21.94
2022-08-05T05:30:31.325Z,22.05
2022-08-05T05:33:08.944Z,21.66
2022-08-05T05:35:43.379Z,21.69
2022-08-05T05:38:13.533Z,21.50
2022-08-05T05:40:48.086Z,21.32
2022-08-05T05:43:56.465Z,21.48
2022-08-05T05:46:15.957Z,21.57
2022-08-05T05:48:46.031Z,21.71
2022-08-05T05:51:25.570Z,21.77
2022-08-05T05:53:58.858Z,21.64
2022-08-05T05:56:35.184Z,21.37
2022-08-05T05:59:05.747Z,21.13
2022-08-05T06:01:39.510Z,21.07
2022-08-05T06:04:12.223Z,21.14
2022-08-05T06:06:41.730Z,21.25
2022-08-05T06:09:08.969Z,21.34
2022-08-05T06:11:43.389Z,21.49
2022-08-05T06:14:28.019Z,21.59
2022-08-05T06:16:55.433Z,21.66
2022-08-05T06:19:34.263Z,21.62
2022-08-05T06:22:06.627Z,21.64
2022-08-05T06:24:34.936Z,21.62
2022-08-05T06:27:01.980Z,21.62
2022-08-05T06:29:52.048Z,21.40
2022-08-05T06:32:25.276Z,20.88
2022-08-05T06:34:56.998Z,20.89
2022-08-05T06:37:57.463Z,21.08
2022-08-05T06:40:20.767Z,21.16
2022-08-05T06:42:51.870Z,21.17
2022-08-05T06:45:20.898Z,20.81
2022-08-05T06:48:37.245Z,20.91
2022-08-05T06:50:34.508Z,21.40
2022-08-05T06:53:11.266Z,21.67
2022-08-05T06:55:38.449Z,21.80
2022-08-05T06:58:29.204Z,22.24
2022-08-05T07:00:57.887Z,23.45
2022-08-05T07:03:32.574Z,24.32
2022-08-05T07:05:59.887Z,24.58
2022-08-05T07:08:27.780Z,24.80
2022-08-05T07:10:55.418Z,26.46
2022-08-05T07:13:58.549Z,27.31
2022-08-05T07:18:01.082Z,25.35
2022-08-05T07:22:27.887Z,25.17
2022-08-05T07:24:56.263Z,24.65
2022-08-05T07:27:22.980Z,23.97
2022-08-05T07:30:23.976Z,23.88
2022-08-05T07:32:43.583Z,24.45
2022-08-05T07:36:05.228Z,24.49
2022-08-05T07:38:00.762Z,25.28
2022-08-05T07:40:32.069Z,25.59
2022-08-05T07:42:59.429Z,26.88
2022-08-05T07:45:57.493Z,26.85
2022-08-05T07:49:02.347Z,28.11
2022-08-05T07:51:08.544Z,27.16
2022-08-05T07:53:50.449Z,26.22
2022-08-05T07:57:00.122Z,24.98
2022-08-05T07:59:04.071Z,24.63
2022-08-05T08:01:30.606Z,24.72
2022-08-05T08:03:57.126Z,25.26
2022-08-05T08:06:28.304Z,25.13
2022-08-05T08:08:54.986Z,25.41
2022-08-05T08:11:27.767Z,25.59
2022-08-05T08:14:08.455Z,26.31
2022-08-05T08:16:51.123Z,26.12
2022-08-05T08:20:10.277Z,24.79
2022-08-05T08:22:09.102Z,24.32
2022-08-05T08:24:51.271Z,24.16
2022-08-05T08:27:18.279Z,24.73
2022-08-05T08:30:05.503Z,23.51
2022-08-05T08:32:34.188Z,23.13
2022-08-05T08:35:07.605Z,23.28
2022-08-05T08:37:45.143Z,23.43
2022-08-05T08:40:12.775Z,23.40
2022-08-05T08:42:50.634Z,23.42
2022-08-05T08:45:27.268Z,23.83
2022-08-05T08:48:12.621Z,24.02
2022-08-05T08:51:03.722Z,23.82
2022-08-05T08:53:37.062Z,24.43
2022-08-05T08:56:06.158Z,24.37
2022-08-05T08:58:43.981Z,24.72
2022-08-05T09:01:15.838Z,25.02
2022-08-05T09:03:47.760Z,24.45
2022-08-05T09:06:20.003Z,25.15
2022-08-05T09:08:48.228Z,24.89
2022-08-05T09:11:15.227Z,25.00
2022-08-05T09:14:01.151Z,25.56
2022-08-05T09:16:29.980Z,24.79
2022-08-05T09:18:59.403Z,24.82
2022-08-05T09:22:23.171Z,24.72
2022-08-05T09:24:15.441Z,25.08
2022-08-05T09:26:46.580Z,25.12
2022-08-05T09:29:16.296Z,25.33
2022-08-05T09:32:51.333Z,25.44
2022-08-05T09:34:55.271Z,25.27
2022-08-05T09:38:16.853Z,25.47
2022-08-05T09:40:41.223Z,25.21
2022-08-05T09:43:41.752Z,25.34
2022-08-05T09:46:33.700Z,25.42
2022-08-05T09:49:19.438Z,24.79
2022-08-05T09:51:48.763Z,25.00
2022-08-05T09:54:21.385Z,24.51
2022-08-05T09:56:57.522Z,25.06
2022-08-05T09:59:27.966Z,25.39
2022-08-05T10:01:57.826Z,25.10
2022-08-05T10:04:36.030Z,24.82
2022-08-05T10:07:19.840Z,25.62
2022-08-05T10:10:14.197Z,26.18
2022-08-05T10:12:57.495Z,26.65
2022-08-05T10:15:34.385Z,26.72
2022-08-05T10:18:08.841Z,26.68
2022-08-05T10:20:39.371Z,26.41
2022-08-05T10:23:22.183Z,25.83
2022-08-05T10:25:55.967Z,26.02
2022-08-05T10:28:29.174Z,26.11
2022-08-05T10:32:49.433Z,26.67
2022-08-05T10:33:44.791Z,26.74
2022-08-05T10:36:11.309Z,26.97
2022-08-05T10:38:45.077Z,27.06
2022-08-05T10:41:29.062Z,26.92
2022-08-05T10:44:18.106Z,27.12
2022-08-05T10:46:53.889Z,26.50
2022-08-05T10:49:26.883Z,25.90
2022-08-05T10:52:00.133Z,25.92
2022-08-05T10:54:56.456Z,26.28
2022-08-05T10:57:30.814Z,26.46
2022-08-05T11:00:19.546Z,26.55
2022-08-05T11:03:00.347Z,25.88
2022-08-05T11:06:08.569Z,25.65
2022-08-05T11:09:24.264Z,25.97
2022-08-05T11:12:26.674Z,25.87
2022-08-05T11:15:19.103Z,25.63
2022-08-05T11:17:59.586Z,24.99
2022-08-05T11:20:34.954Z,24.98
2022-08-05T11:24:05.193Z,25.11
2022-08-05T11:26:32.554Z,25.01
2022-08-05T11:29:11.879Z,25.16
2022-08-05T11:31:57.742Z,25.15
2022-08-05T11:34:51.502Z,24.71
2022-08-05T11:38:28.890Z,24.96
2022-08-05T11:41:34.661Z,25.30
2022-08-05T11:44:07.577Z,25.78
2022-08-05T11:47:10.565Z,26.39
2022-08-05T11:49:34.354Z,26.91
2022-08-05T11:52:01.619Z,27.44
2022-08-05T11:54:38.252Z,28.25
2022-08-05T11:57:24.326Z,28.71
2022-08-05T11:59:53.152Z,28.33
2022-08-05T12:02:31.510Z,27.63
2022-08-05T12:05:00.502Z,27.27
2022-08-05T12:08:04.413Z,27.08
2022-08-05T12:10:23.061Z,26.82
2022-08-05T12:12:59.741Z,26.57
2022-08-05T12:15:35.959Z,26.50
2022-08-05T12:18:11.092Z,27.49
2022-08-05T12:20:39.417Z,27.67
2022-08-05T12:23:11.391Z,27.89
2022-08-05T12:25:58.299Z,28.26
2022-08-05T12:28:36.591Z,28.48
2022-08-05T12:31:04.198Z,29.01
2022-08-05T12:33:36.511Z,28.94
2022-08-05T12:36:08.454Z,29.32
2022-08-05T12:38:40.173Z,29.00
2022-08-05T12:41:13.956Z,29.24
2022-08-05T12:43:50.633Z,28.35
2022-08-05T12:46:29.589Z,28.20
2022-08-05T12:49:01.693Z,28.48
2022-08-05T12:52:12.422Z,29.13
2022-08-05T12:54:48.707Z,30.35
2022-08-05T12:57:17.086Z,30.69
2022-08-05T13:01:57.647Z,30.94
2022-08-05T13:02:35.812Z,30.95
2022-08-05T13:05:06.190Z,31.32
2022-08-05T13:07:57.357Z,30.50
2022-08-05T13:10:19.884Z,29.84
2022-08-05T13:12:57.114Z,29.23
2022-08-05T13:15:41.902Z,29.04
2022-08-05T13:18:20.151Z,29.00
2022-08-05T13:20:47.445Z,29.15
2022-08-05T13:23:16.387Z,29.70
2022-08-05T13:25:52.301Z,29.31
2022-08-05T13:28:26.613Z,28.78
2022-08-05T13:30:53.419Z,29.01
2022-08-05T13:34:20.954Z,30.11
2022-08-05T13:36:09.320Z,30.75
2022-08-05T13:38:38.423Z,30.43
2022-08-05T13:41:12.572Z,29.57
2022-08-05T13:43:44.466Z,29.02
2022-08-05T13:46:30.764Z,29.01
2022-08-05T13:49:10.512Z,29.12
2022-08-05T13:51:40.932Z,28.74
2022-08-05T13:54:13.213Z,28.18
2022-08-05T13:56:45.064Z,28.62
2022-08-05T13:59:23.717Z,28.80
2022-08-05T14:01:56.627Z,28.98
2022-08-05T14:04:50.369Z,29.56
2022-08-05T14:07:55.796Z,29.15
2022-08-05T14:10:18.414Z,28.92
2022-08-05T14:12:48.766Z,28.28
2022-08-05T14:16:09.128Z,28.68
2022-08-05T14:18:02.890Z,28.64
2022-08-05T14:20:31.600Z,29.02
2022-08-05T14:22:59.279Z,29.36
2022-08-05T14:25:28.220Z,28.88
2022-08-05T14:27:55.306Z,29.37
2022-08-05T14:30:21.996Z,28.60
2022-08-05T14:32:48.976Z,27.72
2022-08-05T14:35:16.282Z,27.07
2022-08-05T14:37:52.114Z,27.23
2022-08-05T14:40:24.602Z,26.94
2022-08-05T14:42:52.033Z,26.62
2022-08-05T14:45:19.166Z,26.29
2022-08-05T14:48:03.830Z,25.86
2022-08-05T14:50:33.059Z,25.94
2022-08-05T14:53:02.749Z,25.91
2022-08-05T14:55:39.162Z,26.00
2022-08-05T14:58:12.235Z,26.60
2022-08-05T15:00:58.561Z,26.83
2022-08-05T15:03:33.251Z,26.94
2022-08-05T15:06:07.857Z,27.13
2022-08-05T15:08:58.008Z,27.09
2022-08-05T15:11:50.930Z,26.37
2022-08-05T15:14:11.869Z,25.87
2022-08-05T15:16:58.320Z,25.35
2022-08-05T15:19:24.726Z,25.26
2022-08-05T15:21:51.340Z,25.56
2022-08-05T15:24:18.375Z,26.62
2022-08-05T15:26:46.695Z,27.18
2022-08-05T15:29:15.279Z,28.38
2022-08-05T15:31:41.774Z,28.51
2022-08-05T15:34:31.166Z,28.70
2022-08-05T15:36:54.638Z,28.77
2022-08-05T15:41:01.992Z,28.85
2022-08-05T15:42:53.726Z,27.29
2022-08-05T15:44:54.942Z,26.36
2022-08-05T15:47:23.711Z,27.53
2022-08-05T15:49:58.441Z,28.63
2022-08-05T15:52:52.094Z,28.32
2022-08-05T15:55:16.627Z,26.92
2022-08-05T15:57:43.338Z,26.10
2022-08-05T16:00:11.987Z,25.36
2022-08-05T16:02:38.651Z,24.95
2022-08-05T16:05:05.585Z,24.51
2022-08-05T16:07:36.315Z,24.35
2022-08-05T16:10:04.188Z,24.23
2022-08-05T16:12:30.993Z,24.06
2022-08-05T16:14:57.576Z,23.88
2022-08-05T16:17:24.368Z,23.64
2022-08-05T16:20:05.075Z,23.54
2022-08-05T16:22:37.724Z,23.47
2022-08-05T16:25:08.024Z,23.45
2022-08-05T16:27:47.218Z,23.41
2022-08-05T16:30:26.236Z,23.29
2022-08-05T16:32:55.055Z,23.01
2022-08-05T16:35:27.928Z,22.69
2022-08-05T16:38:02.322Z,22.55
2022-08-05T16:40:51.668Z,22.60
2022-08-05T16:43:23.707Z,22.74
2022-08-05T16:46:03.702Z,22.82
2022-08-05T16:48:36.051Z,22.90
2022-08-05T16:51:03.956Z,22.98
2022-08-05T16:54:03.854Z,23.06
2022-08-05T16:56:23.615Z,22.87
2022-08-05T16:58:50.375Z,22.96
2022-08-05T17:01:17.081Z,22.90
2022-08-05T17:03:45.502Z,22.88
2022-08-05T17:06:12.303Z,22.98
2022-08-05T17:08:52.840Z,23.27
2022-08-05T17:11:25.496Z,23.28
2022-08-05T17:14:05.205Z,23.04
2022-08-05T17:16:35.983Z,22.90
2022-08-05T17:19:07.542Z,23.06
2022-08-05T17:21:37.435Z,23.13
2022-08-05T17:24:28.158Z,23.00
2022-08-05T17:26:55.821Z,22.83
2022-08-05T17:29:33.931Z,22.63
2022-08-05T17:32:16.877Z,22.43
2022-08-05T17:34:47.514Z,22.36
2022-08-05T17:37:41.876Z,22.26
2022-08-05T17:40:01.077Z,22.24
2022-08-05T17:42:30.177Z,22.29
2022-08-05T17:44:59.185Z,22.46
2022-08-05T17:47:26.964Z,22.40
2022-08-05T17:50:03.907Z,22.43
2022-08-05T17:52:32.419Z,22.40
2022-08-05T17:54:59.847Z,22.42
2022-08-05T17:57:27.772Z,22.42
2022-08-05T18:00:03.604Z,22.42
2022-08-05T18:02:32.537Z,22.36
2022-08-05T18:05:02.736Z,22.27
2022-08-05T18:07:32.965Z,22.19
2022-08-05T18:10:10.277Z,22.13
2022-08-05T18:12:37.468Z,21.98
2022-08-05T18:15:05.321Z,21.91
2022-08-05T18:17:59.193Z,21.87
2022-08-05T18:20:19.590Z,21.77
2022-08-05T18:22:57.586Z,21.69
2022-08-05T18:25:25.175Z,21.54
2022-08-05T18:27:59.165Z,21.47
2022-08-05T18:30:29.130Z,21.45
2022-08-05T18:33:00.532Z,21.28
2022-08-05T18:35:49.565Z,21.24
2022-08-05T18:38:18.957Z,21.21
2022-08-05T18:41:56.358Z,21.02
2022-08-05T18:43:38.151Z,20.90
2022-08-05T18:46:09.761Z,20.89
2022-08-05T18:48:41.671Z,20.82
2022-08-05T18:52:04.811Z,20.78
2022-08-05T18:54:13.997Z,20.64
2022-08-05T18:56:40.811Z,20.43
2022-08-05T18:59:43.059Z,20.35
2022-08-05T19:01:58.099Z,20.23
2022-08-05T19:04:25.541Z,20.15
2022-08-05T19:06:53.650Z,20.07
2022-08-05T19:09:21.061Z,19.94
2022-08-05T19:12:01.117Z,19.91
2022-08-05T19:14:59.390Z,19.84
2022-08-05T19:17:16.594Z,19.68
2022-08-05T19:19:47.036Z,19.50
2022-08-05T19:22:17.248Z,19.35
2022-08-05T19:24:54.166Z,19.17
2022-08-05T19:27:22.940Z,19.22
2022-08-05T19:29:49.940Z,19.11
2022-08-05T19:32:16.511Z,18.98
2022-08-05T19:34:54.660Z,18.93
2022-08-05T19:37:29.985Z,18.79
2022-08-05T19:40:10.765Z,18.76
2022-08-05T19:42:38.715Z,18.64
2022-08-05T19:45:07.109Z,18.68
2022-08-05T19:47:37.390Z,18.53
2022-08-05T19:50:07.531Z,18.63
2022-08-05T19:52:36.885Z,18.75
2022-08-05T19:55:07.193Z,18.75
2022-08-05T19:57:48.917Z,18.89
2022-08-05T20:00:22.891Z,18.77
2022-08-05T20:02:49.372Z,18.76
2022-08-05T20:05:24.480Z,18.81
2022-08-05T20:07:55.039Z,18.77
2022-08-05T20:10:25.002Z,18.78
2022-08-05T20:12:51.850Z,18.74
2022-08-05T20:15:48.907Z,18.76
2022-08-05T20:18:10.848Z,18.95
2022-08-05T20:20:56.483Z,19.04
2022-08-05T20:23:39.397Z,19.06
2022-08-05T20:26:16.045Z,18.97
2022-08-05T20:28:44.833Z,18.84
2022-08-05T20:31:11.327Z,18.84
2022-08-05T20:33:37.812Z,18.79
2022-08-05T20:36:09.024Z,18.65
2022-08-05T20:38:37.658Z,18.66
2022-08-05T20:41:08.058Z,18.59
2022-08-05T20:43:59.824Z,18.49
2022-08-05T20:46:24.961Z,18.51
2022-08-05T20:48:52.273Z,18.42
2022-08-05T20:51:18.714Z,18.40
2022-08-05T20:53:56.564Z,18.40
2022-08-05T20:56:29.755Z,18.33
2022-08-05T20:59:00.084Z,18.35
2022-08-05T21:01:38.853Z,18.34
2022-08-05T21:04:07.208Z,18.31
2022-08-05T21:06:37.152Z,18.31
2022-08-05T21:09:07.813Z,18.22
2022-08-05T21:12:07.246Z,18.23
2022-08-05T21:14:26.588Z,18.30
2022-08-05T21:16:53.291Z,18.26
2022-08-05T21:19:20.105Z,18.16
2022-08-05T21:21:50.815Z,18.07
2022-08-05T21:24:19.611Z,17.88
2022-08-05T21:26:53.462Z,17.69
2022-08-05T21:29:26.216Z,17.58
2022-08-05T21:31:53.646Z,17.39
2022-08-05T21:34:20.421Z,17.35
2022-08-05T21:36:49.021Z,17.15
2022-08-05T21:39:16.789Z,17.02
2022-08-05T21:41:52.449Z,16.90
2022-08-05T21:44:27.002Z,16.77
2022-08-05T21:46:53.737Z,16.75
2022-08-05T21:49:56.840Z,16.60
2022-08-05T21:52:21.904Z,16.52
2022-08-05T21:54:55.117Z,16.36
2022-08-05T21:57:31.192Z,16.31
2022-08-05T22:00:10.950Z,16.21
2022-08-05T22:02:38.335Z,16.07
2022-08-05T22:05:05.308Z,16.01
2022-08-05T22:07:40.436Z,15.94
2022-08-05T22:10:26.611Z,15.81
2022-08-05T22:12:54.232Z,15.64
2022-08-05T22:16:01.170Z,15.56
2022-08-05T22:18:08.607Z,15.62
2022-08-05T22:20:39.185Z,15.40
2022-08-05T22:24:03.171Z,15.38
2022-08-05T22:26:30.581Z,15.29
2022-08-05T22:28:57.022Z,15.20
2022-08-05T22:31:24.885Z,15.21
2022-08-05T22:34:00.953Z,15.11
2022-08-05T22:36:28.609Z,15.04
2022-08-05T22:38:56.207Z,14.90
2022-08-05T22:42:04.354Z,14.93
2022-08-05T22:44:10.099Z,14.76
2022-08-05T22:46:40.542Z,14.73
2022-08-05T22:49:23.009Z,14.78
2022-08-05T22:52:04.259Z,14.61
2022-08-05T22:54:34.937Z,14.65
2022-08-05T22:57:01.574Z,14.57
2022-08-05T22:59:43.784Z,14.63
2022-08-05T23:02:17.355Z,14.58
2022-08-05T23:04:51.957Z,14.51
2022-08-05T23:07:21.853Z,14.54
2022-08-05T23:09:57.404Z,14.44
2022-08-05T23:12:28.604Z,14.34
2022-08-05T23:14:55.328Z,14.27
2022-08-05T23:17:34.061Z,14.15
2022-08-05T23:20:02.616Z,14.01
2022-08-05T23:22:29.346Z,13.87
2022-08-05T23:24:57.532Z,13.67
2022-08-05T23:27:24.406Z,13.87
2022-08-05T23:29:57.967Z,13.99
2022-08-05T23:32:24.753Z,14.00
2022-08-05T23:34:53.809Z,13.95
2022-08-05T23:37:20.318Z,13.82
2022-08-05T23:39:54.145Z,13.69
2022-08-05T23:42:23.568Z,13.99
2022-08-05T23:44:56.338Z,14.14
2022-08-05T23:47:24.913Z,13.73
2022-08-05T23:49:52.319Z,13.88
2022-08-05T23:52:30.500Z,13.92
2022-08-05T23:55:02.643Z,13.91
2022-08-05T23:57:32.388Z,13.76
